sensor_id;sensor_type;location;lat;lon;timestamp;P1;durP1;ratioP1;P2;durP2;ratioP2
59728;SDS011;45588;51.598;5.618;2023-05-07T00:01:27;16.40;;;14.88;;
59728;SDS011;45588;51.598;5.618;2023-05-07T00:03:53;12.57;;;11.32;;
59728;SDS011;45588;51.598;5.618;2023-05-07T00:06:18;14.27;;;12.90;;
59728;SDS011;45588;51.598;5.618;2023-05-07T00:08:44;13.25;;;11.98;;
59728;SDS011;45588;51.598;5.618;2023-05-07T00:11:09;15.07;;;13.70;;
59728;SDS011;45588;51.598;5.618;2023-05-07T00:13:35;14.02;;;8.93;;
59728;SDS011;45588;51.598;5.618;2023-05-07T00:16:03;14.88;;;9.52;;
59728;SDS011;45588;51.598;5.618;2023-05-07T00:18:28;16.77;;;15.10;;
59728;SDS011;45588;51.598;5.618;2023-05-07T00:20:53;18.63;;;15.97;;
59728;SDS011;45588;51.598;5.618;2023-05-07T00:23:18;15.35;;;13.70;;
59728;SDS011;45588;51.598;5.618;2023-05-07T00:25:44;15.77;;;14.38;;
59728;SDS011;45588;51.598;5.618;2023-05-07T00:28:09;12.00;;;8.43;;
59728;SDS011;45588;51.598;5.618;2023-05-07T00:30:34;15.52;;;14.13;;
59728;SDS011;45588;51.598;5.618;2023-05-07T00:32:59;16.73;;;15.07;;
59728;SDS011;45588;51.598;5.618;2023-05-07T00:35:25;14.40;;;13.00;;
59728;SDS011;45588;51.598;5.618;2023-05-07T00:37:50;16.63;;;15.02;;
59728;SDS011;45588;51.598;5.618;2023-05-07T00:40:15;15.17;;;13.57;;
59728;SDS011;45588;51.598;5.618;2023-05-07T00:42:40;17.67;;;15.20;;
59728;SDS011;45588;51.598;5.618;2023-05-07T00:45:06;19.85;;;10.52;;
59728;SDS011;45588;51.598;5.618;2023-05-07T00:47:32;14.32;;;12.13;;
59728;SDS011;45588;51.598;5.618;2023-05-07T00:49:58;19.65;;;17.85;;
59728;SDS011;45588;51.598;5.618;2023-05-07T00:52:23;18.95;;;17.02;;
59728;SDS011;45588;51.598;5.618;2023-05-07T00:54:50;16.48;;;14.25;;
59728;SDS011;45588;51.598;5.618;2023-05-07T00:57:16;13.40;;;10.48;;
59728;SDS011;45588;51.598;5.618;2023-05-07T00:59:41;19.75;;;17.85;;
59728;SDS011;45588;51.598;5.618;2023-05-07T01:02:06;20.20;;;17.48;;
59728;SDS011;45588;51.598;5.618;2023-05-07T01:04:32;15.10;;;11.52;;
59728;SDS011;45588;51.598;5.618;2023-05-07T01:06:57;21.23;;;19.00;;
59728;SDS011;45588;51.598;5.618;2023-05-07T01:09:26;22.98;;;20.90;;
59728;SDS011;45588;51.598;5.618;2023-05-07T01:11:52;22.70;;;20.48;;
59728;SDS011;45588;51.598;5.618;2023-05-07T01:14:18;17.33;;;15.48;;
59728;SDS011;45588;51.598;5.618;2023-05-07T01:16:43;14.70;;;11.52;;
59728;SDS011;45588;51.598;5.618;2023-05-07T01:19:09;15.30;;;12.55;;
59728;SDS011;45588;51.598;5.618;2023-05-07T01:21:36;21.92;;;19.63;;
59728;SDS011;45588;51.598;5.618;2023-05-07T01:24:02;24.58;;;21.88;;
59728;SDS011;45588;51.598;5.618;2023-05-07T01:26:27;22.33;;;20.13;;
59728;SDS011;45588;51.598;5.618;2023-05-07T01:28:52;21.93;;;19.17;;
59728;SDS011;45588;51.598;5.618;2023-05-07T01:31:18;27.52;;;24.08;;
59728;SDS011;45588;51.598;5.618;2023-05-07T01:33:43;23.88;;;21.42;;
59728;SDS011;45588;51.598;5.618;2023-05-07T01:36:09;21.42;;;19.08;;
59728;SDS011;45588;51.598;5.618;2023-05-07T01:38:36;16.88;;;13.07;;
59728;SDS011;45588;51.598;5.618;2023-05-07T01:41:02;18.25;;;12.25;;
59728;SDS011;45588;51.598;5.618;2023-05-07T01:43:28;27.02;;;24.52;;
59728;SDS011;45588;51.598;5.618;2023-05-07T01:45:53;25.67;;;23.02;;
59728;SDS011;45588;51.598;5.618;2023-05-07T01:48:19;26.08;;;23.45;;
59728;SDS011;45588;51.598;5.618;2023-05-07T01:50:44;27.23;;;24.65;;
59728;SDS011;45588;51.598;5.618;2023-05-07T01:53:10;19.83;;;13.65;;
59728;SDS011;45588;51.598;5.618;2023-05-07T01:55:35;20.23;;;14.48;;
59728;SDS011;45588;51.598;5.618;2023-05-07T01:58:01;27.13;;;24.52;;
59728;SDS011;45588;51.598;5.618;2023-05-07T02:00:26;25.00;;;22.38;;
59728;SDS011;45588;51.598;5.618;2023-05-07T02:02:52;21.83;;;15.05;;
59728;SDS011;45588;51.598;5.618;2023-05-07T02:05:17;29.90;;;26.88;;
59728;SDS011;45588;51.598;5.618;2023-05-07T02:07:43;28.17;;;24.53;;
59728;SDS011;45588;51.598;5.618;2023-05-07T02:10:08;29.13;;;25.63;;
59728;SDS011;45588;51.598;5.618;2023-05-07T02:12:33;19.70;;;15.43;;
59728;SDS011;45588;51.598;5.618;2023-05-07T02:14:58;31.00;;;28.07;;
59728;SDS011;45588;51.598;5.618;2023-05-07T02:17:24;27.83;;;23.83;;
59728;SDS011;45588;51.598;5.618;2023-05-07T02:19:49;30.38;;;26.20;;
59728;SDS011;45588;51.598;5.618;2023-05-07T02:22:14;22.23;;;16.33;;
59728;SDS011;45588;51.598;5.618;2023-05-07T02:24:40;33.45;;;30.23;;
59728;SDS011;45588;51.598;5.618;2023-05-07T02:27:05;32.83;;;29.60;;
59728;SDS011;45588;51.598;5.618;2023-05-07T02:29:30;34.17;;;30.70;;
59728;SDS011;45588;51.598;5.618;2023-05-07T02:31:56;30.33;;;27.03;;
59728;SDS011;45588;51.598;5.618;2023-05-07T02:34:21;30.07;;;18.73;;
59728;SDS011;45588;51.598;5.618;2023-05-07T02:36:46;23.77;;;16.50;;
59728;SDS011;45588;51.598;5.618;2023-05-07T02:39:12;35.85;;;32.22;;
59728;SDS011;45588;51.598;5.618;2023-05-07T02:41:37;32.80;;;27.63;;
59728;SDS011;45588;51.598;5.618;2023-05-07T02:44:02;28.58;;;18.80;;
59728;SDS011;45588;51.598;5.618;2023-05-07T02:46:27;33.53;;;30.30;;
59728;SDS011;45588;51.598;5.618;2023-05-07T02:48:53;36.00;;;32.63;;
59728;SDS011;45588;51.598;5.618;2023-05-07T02:51:19;35.03;;;31.57;;
59728;SDS011;45588;51.598;5.618;2023-05-07T02:53:45;31.90;;;28.00;;
59728;SDS011;45588;51.598;5.618;2023-05-07T02:56:11;37.22;;;33.75;;
59728;SDS011;45588;51.598;5.618;2023-05-07T02:58:36;34.35;;;29.95;;
59728;SDS011;45588;51.598;5.618;2023-05-07T03:01:01;27.57;;;18.43;;
59728;SDS011;45588;51.598;5.618;2023-05-07T03:03:26;33.25;;;29.65;;
59728;SDS011;45588;51.598;5.618;2023-05-07T03:05:51;41.65;;;37.58;;
59728;SDS011;45588;51.598;5.618;2023-05-07T03:08:17;26.77;;;18.13;;
59728;SDS011;45588;51.598;5.618;2023-05-07T03:10:42;35.27;;;31.57;;
59728;SDS011;45588;51.598;5.618;2023-05-07T03:13:07;34.63;;;28.57;;
59728;SDS011;45588;51.598;5.618;2023-05-07T03:15:32;38.27;;;34.53;;
59728;SDS011;45588;51.598;5.618;2023-05-07T03:17:57;40.33;;;36.20;;
59728;SDS011;45588;51.598;5.618;2023-05-07T03:20:22;33.30;;;29.38;;
59728;SDS011;45588;51.598;5.618;2023-05-07T03:22:48;30.10;;;20.05;;
59728;SDS011;45588;51.598;5.618;2023-05-07T03:25:13;41.15;;;37.05;;
59728;SDS011;45588;51.598;5.618;2023-05-07T03:27:39;28.08;;;18.73;;
59728;SDS011;45588;51.598;5.618;2023-05-07T03:30:06;39.83;;;36.13;;
59728;SDS011;45588;51.598;5.618;2023-05-07T03:32:32;32.58;;;28.85;;
59728;SDS011;45588;51.598;5.618;2023-05-07T03:34:58;34.60;;;28.95;;
59728;SDS011;45588;51.598;5.618;2023-05-07T03:37:23;32.50;;;26.60;;
59728;SDS011;45588;51.598;5.618;2023-05-07T03:39:48;41.23;;;36.83;;
59728;SDS011;45588;51.598;5.618;2023-05-07T03:42:13;35.42;;;31.38;;
59728;SDS011;45588;51.598;5.618;2023-05-07T03:44:38;35.37;;;21.47;;
59728;SDS011;45588;51.598;5.618;2023-05-07T03:47:04;33.65;;;22.23;;
59728;SDS011;45588;51.598;5.618;2023-05-07T03:49:29;42.33;;;38.17;;
59728;SDS011;45588;51.598;5.618;2023-05-07T03:51:54;33.83;;;21.27;;
59728;SDS011;45588;51.598;5.618;2023-05-07T03:54:20;44.45;;;40.25;;
59728;SDS011;45588;51.598;5.618;2023-05-07T03:56:45;47.47;;;42.70;;
59728;SDS011;45588;51.598;5.618;2023-05-07T03:59:11;45.60;;;40.90;;
59728;SDS011;45588;51.598;5.618;2023-05-07T04:01:37;45.00;;;40.13;;
59728;SDS011;45588;51.598;5.618;2023-05-07T04:04:02;44.22;;;39.30;;
59728;SDS011;45588;51.598;5.618;2023-05-07T04:06:28;48.78;;;44.13;;
59728;SDS011;45588;51.598;5.618;2023-05-07T04:08:53;48.30;;;38.85;;
59728;SDS011;45588;51.598;5.618;2023-05-07T04:11:18;43.77;;;36.37;;
59728;SDS011;45588;51.598;5.618;2023-05-07T04:13:43;40.60;;;27.00;;
59728;SDS011;45588;51.598;5.618;2023-05-07T04:16:09;53.53;;;48.30;;
59728;SDS011;45588;51.598;5.618;2023-05-07T04:18:34;50.08;;;43.40;;
59728;SDS011;45588;51.598;5.618;2023-05-07T04:20:59;49.70;;;42.97;;
59728;SDS011;45588;51.598;5.618;2023-05-07T04:23:24;44.03;;;27.25;;
59728;SDS011;45588;51.598;5.618;2023-05-07T04:25:49;40.93;;;25.97;;
59728;SDS011;45588;51.598;5.618;2023-05-07T04:28:15;56.58;;;50.80;;
59728;SDS011;45588;51.598;5.618;2023-05-07T04:30:40;57.90;;;52.10;;
59728;SDS011;45588;51.598;5.618;2023-05-07T04:33:06;44.50;;;26.98;;
59728;SDS011;45588;51.598;5.618;2023-05-07T04:35:31;41.47;;;27.88;;
59728;SDS011;45588;51.598;5.618;2023-05-07T04:37:57;59.70;;;53.58;;
59728;SDS011;45588;51.598;5.618;2023-05-07T04:40:22;64.20;;;57.27;;
59728;SDS011;45588;51.598;5.618;2023-05-07T04:42:47;57.67;;;51.50;;
59728;SDS011;45588;51.598;5.618;2023-05-07T04:45:12;52.57;;;42.50;;
59728;SDS011;45588;51.598;5.618;2023-05-07T04:47:38;55.97;;;46.97;;
59728;SDS011;45588;51.598;5.618;2023-05-07T04:50:03;60.13;;;43.40;;
59728;SDS011;45588;51.598;5.618;2023-05-07T04:52:29;61.08;;;54.28;;
59728;SDS011;45588;51.598;5.618;2023-05-07T04:54:54;63.73;;;56.93;;
59728;SDS011;45588;51.598;5.618;2023-05-07T04:57:19;68.90;;;59.50;;
59728;SDS011;45588;51.598;5.618;2023-05-07T04:59:44;60.00;;;48.63;;
59728;SDS011;45588;51.598;5.618;2023-05-07T05:02:10;50.87;;;31.67;;
59728;SDS011;45588;51.598;5.618;2023-05-07T05:04:35;48.72;;;30.90;;
59728;SDS011;45588;51.598;5.618;2023-05-07T05:07:00;64.60;;;58.00;;
59728;SDS011;45588;51.598;5.618;2023-05-07T05:09:25;67.90;;;60.77;;
59728;SDS011;45588;51.598;5.618;2023-05-07T05:11:50;61.70;;;54.93;;
59728;SDS011;45588;51.598;5.618;2023-05-07T05:14:16;59.57;;;50.00;;
59728;SDS011;45588;51.598;5.618;2023-05-07T05:16:41;56.40;;;41.83;;
59728;SDS011;45588;51.598;5.618;2023-05-07T05:19:06;68.72;;;61.42;;
59728;SDS011;45588;51.598;5.618;2023-05-07T05:21:34;59.57;;;33.83;;
59728;SDS011;45588;51.598;5.618;2023-05-07T05:23:59;51.25;;;33.97;;
59728;SDS011;45588;51.598;5.618;2023-05-07T05:26:24;66.57;;;58.47;;
59728;SDS011;45588;51.598;5.618;2023-05-07T05:28:50;70.30;;;62.95;;
59728;SDS011;45588;51.598;5.618;2023-05-07T05:31:16;75.03;;;67.60;;
59728;SDS011;45588;51.598;5.618;2023-05-07T05:33:41;67.07;;;58.97;;
59728;SDS011;45588;51.598;5.618;2023-05-07T05:36:08;76.27;;;68.33;;
59728;SDS011;45588;51.598;5.618;2023-05-07T05:38:34;70.32;;;62.63;;
59728;SDS011;45588;51.598;5.618;2023-05-07T05:40:59;72.60;;;65.03;;
59728;SDS011;45588;51.598;5.618;2023-05-07T05:43:24;61.95;;;53.28;;
59728;SDS011;45588;51.598;5.618;2023-05-07T05:45:49;72.87;;;65.27;;
59728;SDS011;45588;51.598;5.618;2023-05-07T05:48:15;71.13;;;63.87;;
59728;SDS011;45588;51.598;5.618;2023-05-07T05:50:41;60.87;;;50.37;;
59728;SDS011;45588;51.598;5.618;2023-05-07T05:53:06;61.42;;;54.88;;
59728;SDS011;45588;51.598;5.618;2023-05-07T05:55:32;63.10;;;52.77;;
59728;SDS011;45588;51.598;5.618;2023-05-07T05:57:57;71.82;;;64.97;;
59728;SDS011;45588;51.598;5.618;2023-05-07T06:00:22;72.97;;;65.47;;
59728;SDS011;45588;51.598;5.618;2023-05-07T06:02:48;69.93;;;62.60;;
59728;SDS011;45588;51.598;5.618;2023-05-07T06:05:13;67.63;;;59.05;;
59728;SDS011;45588;51.598;5.618;2023-05-07T06:07:38;61.08;;;52.72;;
59728;SDS011;45588;51.598;5.618;2023-05-07T06:10:04;70.60;;;63.53;;
59728;SDS011;45588;51.598;5.618;2023-05-07T06:12:29;62.15;;;55.10;;
59728;SDS011;45588;51.598;5.618;2023-05-07T06:14:54;69.17;;;61.87;;
59728;SDS011;45588;51.598;5.618;2023-05-07T06:17:20;64.93;;;58.38;;
59728;SDS011;45588;51.598;5.618;2023-05-07T06:19:45;65.17;;;58.90;;
59728;SDS011;45588;51.598;5.618;2023-05-07T06:22:10;60.65;;;54.40;;
59728;SDS011;45588;51.598;5.618;2023-05-07T06:24:35;59.92;;;53.35;;
59728;SDS011;45588;51.598;5.618;2023-05-07T06:27:00;67.82;;;61.38;;
59728;SDS011;45588;51.598;5.618;2023-05-07T06:29:26;69.82;;;62.75;;
59728;SDS011;45588;51.598;5.618;2023-05-07T06:31:54;66.13;;;59.38;;
59728;SDS011;45588;51.598;5.618;2023-05-07T06:34:19;60.75;;;54.13;;
59728;SDS011;45588;51.598;5.618;2023-05-07T06:36:44;55.40;;;48.83;;
59728;SDS011;45588;51.598;5.618;2023-05-07T06:39:09;58.55;;;49.80;;
59728;SDS011;45588;51.598;5.618;2023-05-07T06:41:35;65.13;;;58.72;;
59728;SDS011;45588;51.598;5.618;2023-05-07T06:44:01;54.15;;;47.88;;
59728;SDS011;45588;51.598;5.618;2023-05-07T06:46:26;64.28;;;57.85;;
59728;SDS011;45588;51.598;5.618;2023-05-07T06:48:52;56.10;;;50.15;;
59728;SDS011;45588;51.598;5.618;2023-05-07T06:51:17;48.70;;;32.67;;
59728;SDS011;45588;51.598;5.618;2023-05-07T06:53:42;59.10;;;53.37;;
59728;SDS011;45588;51.598;5.618;2023-05-07T06:56:07;56.10;;;50.20;;
59728;SDS011;45588;51.598;5.618;2023-05-07T06:58:33;58.50;;;52.80;;
59728;SDS011;45588;51.598;5.618;2023-05-07T07:00:58;48.13;;;29.90;;
59728;SDS011;45588;51.598;5.618;2023-05-07T07:03:23;47.53;;;42.83;;
59728;SDS011;45588;51.598;5.618;2023-05-07T07:05:51;47.73;;;43.00;;
59728;SDS011;45588;51.598;5.618;2023-05-07T07:08:16;47.88;;;42.80;;
59728;SDS011;45588;51.598;5.618;2023-05-07T07:10:42;45.97;;;41.65;;
59728;SDS011;45588;51.598;5.618;2023-05-07T07:13:08;42.40;;;38.30;;
59728;SDS011;45588;51.598;5.618;2023-05-07T07:15:33;44.90;;;40.60;;
59728;SDS011;45588;51.598;5.618;2023-05-07T07:17:58;44.83;;;40.60;;
59728;SDS011;45588;51.598;5.618;2023-05-07T07:20:23;43.27;;;39.20;;
59728;SDS011;45588;51.598;5.618;2023-05-07T07:22:48;42.53;;;38.33;;
59728;SDS011;45588;51.598;5.618;2023-05-07T07:25:13;42.40;;;38.40;;
59728;SDS011;45588;51.598;5.618;2023-05-07T07:27:39;43.17;;;38.97;;
59728;SDS011;45588;51.598;5.618;2023-05-07T07:30:05;36.38;;;32.45;;
59728;SDS011;45588;51.598;5.618;2023-05-07T07:32:30;42.40;;;38.20;;
59728;SDS011;45588;51.598;5.618;2023-05-07T07:34:57;42.15;;;38.25;;
59728;SDS011;45588;51.598;5.618;2023-05-07T07:37:22;41.07;;;36.77;;
59728;SDS011;45588;51.598;5.618;2023-05-07T07:39:47;41.97;;;38.00;;
59728;SDS011;45588;51.598;5.618;2023-05-07T07:42:12;42.40;;;38.27;;
59728;SDS011;45588;51.598;5.618;2023-05-07T07:44:38;40.60;;;36.60;;
59728;SDS011;45588;51.598;5.618;2023-05-07T07:47:04;41.75;;;37.67;;
59728;SDS011;45588;51.598;5.618;2023-05-07T07:49:29;37.85;;;34.15;;
59728;SDS011;45588;51.598;5.618;2023-05-07T07:51:55;39.13;;;35.43;;
59728;SDS011;45588;51.598;5.618;2023-05-07T07:54:21;40.58;;;36.63;;
59728;SDS011;45588;51.598;5.618;2023-05-07T07:56:46;43.00;;;38.83;;
59728;SDS011;45588;51.598;5.618;2023-05-07T07:59:11;39.93;;;36.13;;
59728;SDS011;45588;51.598;5.618;2023-05-07T08:01:38;40.08;;;36.38;;
59728;SDS011;45588;51.598;5.618;2023-05-07T08:04:03;41.27;;;37.27;;
59728;SDS011;45588;51.598;5.618;2023-05-07T08:06:30;40.13;;;36.45;;
59728;SDS011;45588;51.598;5.618;2023-05-07T08:08:55;38.07;;;34.47;;
59728;SDS011;45588;51.598;5.618;2023-05-07T08:11:20;41.23;;;37.43;;
59728;SDS011;45588;51.598;5.618;2023-05-07T08:13:46;40.90;;;37.22;;
59728;SDS011;45588;51.598;5.618;2023-05-07T08:16:11;41.13;;;37.10;;
59728;SDS011;45588;51.598;5.618;2023-05-07T08:18:37;41.13;;;37.33;;
59728;SDS011;45588;51.598;5.618;2023-05-07T08:21:02;37.70;;;34.27;;
59728;SDS011;45588;51.598;5.618;2023-05-07T08:23:27;38.47;;;34.58;;
59728;SDS011;45588;51.598;5.618;2023-05-07T08:25:52;38.83;;;35.07;;
59728;SDS011;45588;51.598;5.618;2023-05-07T08:28:18;39.58;;;35.63;;
59728;SDS011;45588;51.598;5.618;2023-05-07T08:30:44;40.03;;;36.03;;
59728;SDS011;45588;51.598;5.618;2023-05-07T08:33:09;37.17;;;33.97;;
59728;SDS011;45588;51.598;5.618;2023-05-07T08:35:34;36.10;;;32.55;;
59728;SDS011;45588;51.598;5.618;2023-05-07T08:38:00;37.10;;;33.60;;
59728;SDS011;45588;51.598;5.618;2023-05-07T08:40:25;34.38;;;31.15;;
59728;SDS011;45588;51.598;5.618;2023-05-07T08:42:54;36.33;;;33.15;;
59728;SDS011;45588;51.598;5.618;2023-05-07T08:45:21;33.40;;;30.20;;
59728;SDS011;45588;51.598;5.618;2023-05-07T08:47:47;36.67;;;33.25;;
59728;SDS011;45588;51.598;5.618;2023-05-07T08:50:14;36.33;;;32.90;;
59728;SDS011;45588;51.598;5.618;2023-05-07T08:52:40;34.25;;;31.08;;
59728;SDS011;45588;51.598;5.618;2023-05-07T08:55:06;36.43;;;33.07;;
59728;SDS011;45588;51.598;5.618;2023-05-07T08:57:31;34.72;;;31.52;;
59728;SDS011;45588;51.598;5.618;2023-05-07T08:59:56;37.03;;;33.63;;
59728;SDS011;45588;51.598;5.618;2023-05-07T09:02:21;31.70;;;28.80;;
59728;SDS011;45588;51.598;5.618;2023-05-07T09:04:47;33.50;;;30.30;;
59728;SDS011;45588;51.598;5.618;2023-05-07T09:07:12;34.60;;;31.40;;
59728;SDS011;45588;51.598;5.618;2023-05-07T09:09:37;33.60;;;30.60;;
59728;SDS011;45588;51.598;5.618;2023-05-07T09:12:02;31.60;;;28.77;;
59728;SDS011;45588;51.598;5.618;2023-05-07T09:14:28;32.42;;;29.38;;
59728;SDS011;45588;51.598;5.618;2023-05-07T09:16:54;31.73;;;28.77;;
59728;SDS011;45588;51.598;5.618;2023-05-07T09:19:26;32.70;;;29.65;;
59728;SDS011;45588;51.598;5.618;2023-05-07T09:22:01;33.28;;;30.38;;
59728;SDS011;45588;51.598;5.618;2023-05-07T09:24:27;33.00;;;29.73;;
59728;SDS011;45588;51.598;5.618;2023-05-07T09:26:57;34.67;;;31.55;;
59728;SDS011;45588;51.598;5.618;2023-05-07T09:29:22;33.72;;;30.45;;
59728;SDS011;45588;51.598;5.618;2023-05-07T09:31:47;29.33;;;26.50;;
59728;SDS011;45588;51.598;5.618;2023-05-07T09:34:13;32.10;;;29.03;;
59728;SDS011;45588;51.598;5.618;2023-05-07T09:36:38;30.03;;;27.40;;
59728;SDS011;45588;51.598;5.618;2023-05-07T09:39:03;28.33;;;25.70;;
59728;SDS011;45588;51.598;5.618;2023-05-07T09:41:29;28.90;;;25.98;;
59728;SDS011;45588;51.598;5.618;2023-05-07T09:43:55;26.20;;;23.83;;
59728;SDS011;45588;51.598;5.618;2023-05-07T09:46:23;27.98;;;25.30;;
59728;SDS011;45588;51.598;5.618;2023-05-07T09:48:50;28.83;;;26.08;;
59728;SDS011;45588;51.598;5.618;2023-05-07T09:51:21;31.27;;;28.45;;
59728;SDS011;45588;51.598;5.618;2023-05-07T09:53:47;32.17;;;29.38;;
59728;SDS011;45588;51.598;5.618;2023-05-07T09:56:13;29.50;;;26.88;;
59728;SDS011;45588;51.598;5.618;2023-05-07T09:58:39;28.90;;;26.00;;
59728;SDS011;45588;51.598;5.618;2023-05-07T10:01:06;28.83;;;26.17;;
59728;SDS011;45588;51.598;5.618;2023-05-07T10:03:31;27.02;;;24.55;;
59728;SDS011;45588;51.598;5.618;2023-05-07T10:05:58;28.67;;;25.90;;
59728;SDS011;45588;51.598;5.618;2023-05-07T10:08:24;30.02;;;27.13;;
59728;SDS011;45588;51.598;5.618;2023-05-07T10:10:49;29.20;;;26.50;;
59728;SDS011;45588;51.598;5.618;2023-05-07T10:13:15;27.92;;;25.27;;
59728;SDS011;45588;51.598;5.618;2023-05-07T10:15:41;24.75;;;22.50;;
59728;SDS011;45588;51.598;5.618;2023-05-07T10:18:06;26.50;;;24.20;;
59728;SDS011;45588;51.598;5.618;2023-05-07T10:20:33;24.80;;;22.65;;
59728;SDS011;45588;51.598;5.618;2023-05-07T10:22:58;24.27;;;22.08;;
59728;SDS011;45588;51.598;5.618;2023-05-07T10:25:30;26.80;;;24.42;;
59728;SDS011;45588;51.598;5.618;2023-05-07T10:27:56;27.17;;;24.73;;
59728;SDS011;45588;51.598;5.618;2023-05-07T10:33:05;23.30;;;21.20;;
59728;SDS011;45588;51.598;5.618;2023-05-07T10:35:43;25.17;;;22.98;;
59728;SDS011;45588;51.598;5.618;2023-05-07T10:38:09;25.95;;;23.50;;
59728;SDS011;45588;51.598;5.618;2023-05-07T10:40:34;26.88;;;24.27;;
59728;SDS011;45588;51.598;5.618;2023-05-07T10:43:03;26.42;;;24.17;;
59728;SDS011;45588;51.598;5.618;2023-05-07T10:45:30;24.50;;;22.40;;
59728;SDS011;45588;51.598;5.618;2023-05-07T10:48:16;26.30;;;23.92;;
59728;SDS011;45588;51.598;5.618;2023-05-07T10:50:41;25.70;;;23.40;;
59728;SDS011;45588;51.598;5.618;2023-05-07T10:58:27;25.10;;;22.77;;
59728;SDS011;45588;51.598;5.618;2023-05-07T11:00:59;26.98;;;24.60;;
59728;SDS011;45588;51.598;5.618;2023-05-07T11:03:25;25.92;;;23.35;;
59728;SDS011;45588;51.598;5.618;2023-05-07T11:08:54;24.08;;;21.73;;
59728;SDS011;45588;51.598;5.618;2023-05-07T11:11:20;21.90;;;19.95;;
59728;SDS011;45588;51.598;5.618;2023-05-07T11:14:04;23.42;;;21.23;;
59728;SDS011;45588;51.598;5.618;2023-05-07T11:16:30;21.42;;;19.42;;
59728;SDS011;45588;51.598;5.618;2023-05-07T11:18:57;21.95;;;19.75;;
59728;SDS011;45588;51.598;5.618;2023-05-07T11:21:35;18.27;;;16.65;;
59728;SDS011;45588;51.598;5.618;2023-05-07T11:24:01;19.40;;;17.42;;
59728;SDS011;45588;51.598;5.618;2023-05-07T11:26:27;21.63;;;19.63;;
59728;SDS011;45588;51.598;5.618;2023-05-07T11:28:53;21.50;;;19.63;;
59728;SDS011;45588;51.598;5.618;2023-05-07T11:31:25;19.08;;;17.35;;
59728;SDS011;45588;51.598;5.618;2023-05-07T11:33:51;17.23;;;15.55;;
59728;SDS011;45588;51.598;5.618;2023-05-07T11:36:16;14.95;;;13.38;;
59728;SDS011;45588;51.598;5.618;2023-05-07T11:38:42;14.32;;;12.88;;
59728;SDS011;45588;51.598;5.618;2023-05-07T11:41:08;17.90;;;16.17;;
59728;SDS011;45588;51.598;5.618;2023-05-07T11:43:33;17.63;;;15.73;;
59728;SDS011;45588;51.598;5.618;2023-05-07T11:46:07;18.58;;;16.70;;
59728;SDS011;45588;51.598;5.618;2023-05-07T11:48:33;19.60;;;17.55;;
59728;SDS011;45588;51.598;5.618;2023-05-07T11:53:27;14.77;;;13.27;;
59728;SDS011;45588;51.598;5.618;2023-05-07T11:55:52;13.25;;;11.95;;
59728;SDS011;45588;51.598;5.618;2023-05-07T11:58:20;13.60;;;11.77;;
59728;SDS011;45588;51.598;5.618;2023-05-07T12:00:49;10.15;;;8.38;;
59728;SDS011;45588;51.598;5.618;2023-05-07T12:03:15;9.77;;;8.77;;
59728;SDS011;45588;51.598;5.618;2023-05-07T12:05:40;12.13;;;11.00;;
59728;SDS011;45588;51.598;5.618;2023-05-07T12:08:06;13.77;;;11.95;;
59728;SDS011;45588;51.598;5.618;2023-05-07T12:10:32;14.43;;;13.15;;
59728;SDS011;45588;51.598;5.618;2023-05-07T12:12:57;14.80;;;13.33;;
59728;SDS011;45588;51.598;5.618;2023-05-07T12:15:22;13.80;;;12.60;;
59728;SDS011;45588;51.598;5.618;2023-05-07T12:17:47;12.93;;;11.68;;
59728;SDS011;45588;51.598;5.618;2023-05-07T12:20:13;13.13;;;11.93;;
59728;SDS011;45588;51.598;5.618;2023-05-07T12:22:39;15.90;;;13.02;;
59728;SDS011;45588;51.598;5.618;2023-05-07T12:25:05;14.98;;;13.55;;
59728;SDS011;45588;51.598;5.618;2023-05-07T12:27:31;15.20;;;13.65;;
59728;SDS011;45588;51.598;5.618;2023-05-07T12:29:57;15.55;;;13.70;;
59728;SDS011;45588;51.598;5.618;2023-05-07T12:32:22;15.48;;;13.98;;
59728;SDS011;45588;51.598;5.618;2023-05-07T12:34:51;15.27;;;13.97;;
59728;SDS011;45588;51.598;5.618;2023-05-07T12:37:16;17.15;;;15.48;;
59728;SDS011;45588;51.598;5.618;2023-05-07T12:39:47;18.52;;;16.77;;
59728;SDS011;45588;51.598;5.618;2023-05-07T12:42:14;18.58;;;16.70;;
59728;SDS011;45588;51.598;5.618;2023-05-07T12:44:40;19.00;;;17.10;;
59728;SDS011;45588;51.598;5.618;2023-05-07T12:47:05;17.17;;;15.73;;
59728;SDS011;45588;51.598;5.618;2023-05-07T12:49:30;17.92;;;16.33;;
59728;SDS011;45588;51.598;5.618;2023-05-07T12:51:55;18.45;;;16.65;;
59728;SDS011;45588;51.598;5.618;2023-05-07T12:54:30;17.92;;;16.27;;
59728;SDS011;45588;51.598;5.618;2023-05-07T12:57:19;16.60;;;14.95;;
59728;SDS011;45588;51.598;5.618;2023-05-07T12:59:42;16.17;;;14.43;;
59728;SDS011;45588;51.598;5.618;2023-05-07T13:02:07;18.48;;;15.48;;
59728;SDS011;45588;51.598;5.618;2023-05-07T13:04:33;17.60;;;15.93;;
59728;SDS011;45588;51.598;5.618;2023-05-07T13:06:58;18.65;;;16.95;;
59728;SDS011;45588;51.598;5.618;2023-05-07T13:09:24;18.48;;;16.80;;
59728;SDS011;45588;51.598;5.618;2023-05-07T13:11:49;17.25;;;15.65;;
59728;SDS011;45588;51.598;5.618;2023-05-07T13:14:14;16.35;;;14.95;;
59728;SDS011;45588;51.598;5.618;2023-05-07T13:16:39;16.15;;;14.65;;
59728;SDS011;45588;51.598;5.618;2023-05-07T13:19:05;11.77;;;10.65;;
59728;SDS011;45588;51.598;5.618;2023-05-07T13:21:30;2.85;;;2.20;;
59728;SDS011;45588;51.598;5.618;2023-05-07T13:23:57;2.60;;;1.77;;
59728;SDS011;45588;51.598;5.618;2023-05-07T13:26:22;4.85;;;1.63;;
59728;SDS011;45588;51.598;5.618;2023-05-07T13:28:48;3.33;;;1.70;;
59728;SDS011;45588;51.598;5.618;2023-05-07T13:31:13;2.78;;;1.27;;
59728;SDS011;45588;51.598;5.618;2023-05-07T13:33:38;3.60;;;1.20;;
59728;SDS011;45588;51.598;5.618;2023-05-07T13:36:04;2.17;;;1.00;;
59728;SDS011;45588;51.598;5.618;2023-05-07T13:38:30;2.28;;;1.20;;
59728;SDS011;45588;51.598;5.618;2023-05-07T13:40:55;4.55;;;1.10;;
59728;SDS011;45588;51.598;5.618;2023-05-07T13:43:21;2.97;;;1.93;;
59728;SDS011;45588;51.598;5.618;2023-05-07T13:45:46;7.75;;;3.40;;
59728;SDS011;45588;51.598;5.618;2023-05-07T13:48:11;8.77;;;4.00;;
59728;SDS011;45588;51.598;5.618;2023-05-07T13:50:36;9.20;;;4.00;;
59728;SDS011;45588;51.598;5.618;2023-05-07T13:53:01;7.67;;;4.20;;
59728;SDS011;45588;51.598;5.618;2023-05-07T13:55:28;7.80;;;4.30;;
59728;SDS011;45588;51.598;5.618;2023-05-07T13:58:00;8.40;;;4.40;;
59728;SDS011;45588;51.598;5.618;2023-05-07T14:00:26;6.05;;;3.55;;
59728;SDS011;45588;51.598;5.618;2023-05-07T14:02:51;8.45;;;4.25;;
59728;SDS011;45588;51.598;5.618;2023-05-07T14:05:17;9.73;;;4.75;;
59728;SDS011;45588;51.598;5.618;2023-05-07T14:07:42;7.38;;;4.60;;
59728;SDS011;45588;51.598;5.618;2023-05-07T14:10:07;9.77;;;4.27;;
59728;SDS011;45588;51.598;5.618;2023-05-07T14:12:33;7.07;;;3.67;;
59728;SDS011;45588;51.598;5.618;2023-05-07T14:14:58;6.53;;;4.00;;
59728;SDS011;45588;51.598;5.618;2023-05-07T14:17:23;5.78;;;3.33;;
59728;SDS011;45588;51.598;5.618;2023-05-07T14:19:51;3.72;;;3.25;;
59728;SDS011;45588;51.598;5.618;2023-05-07T14:22:18;6.90;;;3.38;;
59728;SDS011;45588;51.598;5.618;2023-05-07T14:24:44;4.95;;;3.25;;
59728;SDS011;45588;51.598;5.618;2023-05-07T14:27:09;5.57;;;3.97;;
59728;SDS011;45588;51.598;5.618;2023-05-07T14:29:35;7.47;;;4.80;;